Time;durP1;ratioP1;P1;durP2;ratioP2;P2;SDS_P1;SDS_P2;PMS_P1;PMS_P2;Temp;Humidity;BMP_temperature;BMP_pressure;BME280_temperature;BME280_humidity;BME280_pressure;Samples;Min_cycle;Max_cycle;Signal;HPM_P1;HPM_P2
2021/01/17 00:02:08;;;;;;;;;;;;;;;0.12;94.25;101609.94;5078543;28;20392;-80
2021/01/17 00:04:34;;;;;;;66.83;31.40;;;;;;;0.11;94.49;101602.25;5073936;28;19916;-79
2021/01/17 00:06:59;;;;;;;67.55;31.48;;;;;;;0.19;94.76;101597.00;5072108;28;20482;-79
2021/01/17 00:09:24;;;;;;;64.53;31.73;;;;;;;0.20;94.42;101598.78;5073502;28;20029;-76
2021/01/17 00:11:49;;;;;;;78.00;32.83;;;;;;;0.17;94.47;101588.44;5066817;28;20287;-79
2021/01/17 00:14:15;;;;;;;64.03;31.65;;;;;;;0.17;94.57;101592.59;5066433;28;20478;-79
2021/01/17 00:16:40;;;;;;;65.32;32.35;;;;;;;0.17;94.50;101592.59;5064663;28;20021;-78
2021/01/17 00:19:06;;;;;;;64.43;32.15;;;;;;;0.18;94.59;101594.38;5068709;28;20030;-78
2021/01/17 00:21:31;;;;;;;62.15;31.33;;;;;;;0.19;94.56;101602.06;5073595;28;20382;-79
2021/01/17 00:23:56;;;;;;;60.22;31.77;;;;;;;0.18;94.96;101602.81;5071222;28;20470;-78
2021/01/17 00:26:21;;;;;;;60.53;29.90;;;;;;;0.20;94.54;101603.81;5072466;28;20115;-79
2021/01/17 00:28:47;;;;;;;61.07;29.30;;;;;;;0.19;94.80;101591.06;5073740;28;20278;-79
2021/01/17 00:31:12;;;;;;;67.43;30.93;;;;;;;0.26;94.57;101595.84;5071913;28;20025;-79
2021/01/17 00:33:37;;;;;;;60.87;31.33;;;;;;;0.24;94.51;101594.84;5073628;28;20266;-79
2021/01/17 00:36:03;;;;;;;62.92;31.05;;;;;;;0.22;94.69;101597.25;5071764;28;20032;-79
2021/01/17 00:38:28;;;;;;;57.47;29.05;;;;;;;0.22;94.77;101588.78;5072748;28;20020;-78
2021/01/17 00:40:53;;;;;;;55.80;27.60;;;;;;;0.26;94.96;101591.66;5072781;28;20031;-80
2021/01/17 00:43:19;;;;;;;64.82;30.80;;;;;;;0.24;94.92;101595.72;5073191;28;20293;-80
2021/01/17 00:45:44;;;;;;;53.67;29.08;;;;;;;0.26;94.69;101594.19;5073085;28;20490;-80
2021/01/17 00:48:09;;;;;;;59.60;29.93;;;;;;;0.30;94.62;101585.19;5073129;28;20040;-80
2021/01/17 00:50:35;;;;;;;55.37;28.63;;;;;;;0.21;94.79;101587.03;5071909;28;20275;-80
2021/01/17 00:53:00;;;;;;;62.95;32.20;;;;;;;0.21;94.86;101584.50;5071611;28;20021;-80
2021/01/17 00:55:25;;;;;;;59.93;28.53;;;;;;;0.20;95.12;101583.63;5072596;28;20055;-78
2021/01/17 00:57:51;;;;;;;58.17;28.03;;;;;;;0.28;95.01;101581.66;5072812;28;20267;-79
2021/01/17 01:00:20;;;;;;;60.95;29.70;;;;;;;0.25;94.95;101574.75;5074371;28;20028;-79
2021/01/17 01:02:45;;;;;;;64.93;31.47;;;;;;;0.30;95.18;101580.13;5071344;28;20028;-78
2021/01/17 01:05:13;;;;;;;64.65;30.70;;;;;;;0.33;95.33;101574.47;5071721;28;20029;-79
2021/01/17 01:07:38;;;;;;;61.57;32.00;;;;;;;0.34;95.27;101572.06;5073617;28;20078;-79
2021/01/17 01:10:08;;;;;;;64.25;30.50;;;;;;;0.30;95.45;101573.44;5072231;28;20513;-79
2021/01/17 01:12:34;;;;;;;61.40;32.67;;;;;;;0.32;95.49;101571.03;5072716;28;20042;-79
2021/01/17 01:15:00;;;;;;;62.90;30.10;;;;;;;0.34;95.46;101569.53;5072590;28;20020;-79
2021/01/17 01:17:25;;;;;;;62.88;31.23;;;;;;;0.41;95.25;101566.69;5073204;28;20447;-80
2021/01/17 01:19:50;;;;;;;62.95;31.58;;;;;;;0.44;95.08;101571.97;5071753;28;20049;-78
2021/01/17 01:22:15;;;;;;;58.42;29.67;;;;;;;0.41;95.19;101569.22;5073201;28;20028;-79
2021/01/17 01:24:41;;;;;;;65.67;29.90;;;;;;;0.38;95.24;101561.41;5071874;28;20025;-80
2021/01/17 01:27:06;;;;;;;66.77;31.67;;;;;;;0.36;95.36;101552.84;5072107;28;20361;-79
2021/01/17 01:29:31;;;;;;;65.38;30.92;;;;;;;0.35;95.23;101551.06;5074320;28;20047;-79
2021/01/17 01:31:56;;;;;;;66.67;30.90;;;;;;;0.32;95.96;101545.75;5071758;28;20131;-78
2021/01/17 01:34:22;;;;;;;68.33;33.53;;;;;;;0.37;95.65;101549.53;5072799;28;20756;-79
2021/01/17 01:36:47;;;;;;;67.23;31.90;;;;;;;0.36;95.49;101550.31;5072290;28;20281;-79
2021/01/17 01:39:13;;;;;;;72.03;32.97;;;;;;;0.43;95.76;101557.56;5074385;28;20274;-79
2021/01/17 01:41:41;;;;;;;66.40;29.75;;;;;;;0.46;95.81;101555.28;5074558;28;20062;-79
2021/01/17 01:44:09;;;;;;;65.37;32.43;;;;;;;0.46;95.58;101555.28;5075211;28;20084;-79
2021/01/17 01:46:38;;;;;;;67.43;30.63;;;;;;;0.50;95.61;101562.31;5073858;28;20055;-79
2021/01/17 01:49:03;;;;;;;72.20;31.93;;;;;;;0.48;95.29;101566.38;5074317;28;20028;-78
2021/01/17 01:51:28;;;;;;;66.85;31.98;;;;;;;0.52;95.60;101565.84;5071876;28;20028;-79
2021/01/17 01:53:55;;;;;;;70.07;33.42;;;;;;;0.46;95.52;101565.38;5072993;28;20076;-79
2021/01/17 01:56:22;;;;;;;78.00;34.13;;;;;;;0.51;95.64;101561.56;5072275;28;20032;-79
2021/01/17 01:58:50;;;;;;;68.20;33.53;;;;;;;0.53;95.55;101560.03;5074541;28;20027;-79
2021/01/17 02:01:15;;;;;;;72.67;33.33;;;;;;;0.49;95.47;101558.03;5073210;28;20028;-79
2021/01/17 02:03:45;;;;;;;74.73;33.63;;;;;;;0.48;96.01;101561.31;5073158;28;20037;-79
2021/01/17 02:06:11;;;;;;;79.30;34.63;;;;;;;0.54;95.88;101564.31;5073637;28;20358;-79
2021/01/17 02:08:55;;;;;;;67.82;32.67;;;;;;;0.51;95.95;101566.59;5075074;28;20457;-79
2021/01/17 02:11:25;;;;;;;76.47;34.23;;;;;;;0.50;96.04;101562.31;5075448;28;20047;-78
2021/01/17 02:14:09;;;;;;;68.40;31.87;;;;;;;0.58;95.99;101568.81;5075424;28;20398;-77
2021/01/17 02:16:38;;;;;;;71.73;32.70;;;;;;;0.64;95.81;101565.88;5074460;28;20079;-77
2021/01/17 02:19:07;;;;;;;67.93;32.70;;;;;;;0.60;96.07;101558.81;5075433;28;20115;-78
2021/01/17 02:21:35;;;;;;;67.50;31.90;;;;;;;0.56;95.94;101564.41;5073533;28;20047;-77
2021/01/17 02:24:05;;;;;;;68.07;32.97;;;;;;;0.59;95.85;101559.59;5073867;28;20056;-78
2021/01/17 02:26:31;;;;;;;76.87;34.27;;;;;;;0.60;96.32;101554.66;5073583;28;20071;-77
2021/01/17 02:28:58;;;;;;;74.35;33.90;;;;;;;0.60;95.99;101559.69;5075257;28;20398;-77
2021/01/17 02:31:25;;;;;;;74.70;33.57;;;;;;;0.60;96.15;101557.19;5074476;28;20044;-77
2021/01/17 02:33:53;;;;;;;80.97;36.13;;;;;;;0.59;96.35;101555.41;5073637;28;20021;-77
2021/01/17 02:36:49;;;;;;;69.47;33.10;;;;;;;0.63;96.44;101557.41;5073344;28;20093;-78
2021/01/17 02:39:28;;;;;;;74.17;34.13;;;;;;;0.68;96.63;101551.84;5071060;28;20078;-78
2021/01/17 02:41:56;;;;;;;71.93;31.90;;;;;;;0.69;96.43;101549.41;5074660;28;20032;-78
2021/01/17 02:44:23;;;;;;;73.07;34.33;;;;;;;0.73;96.53;101553.06;5073225;28;20021;-78
2021/01/17 02:46:49;;;;;;;74.23;35.60;;;;;;;0.81;96.54;101544.38;5074872;28;20055;-79
2021/01/17 02:49:14;;;;;;;72.95;33.00;;;;;;;0.80;96.72;101546.03;5072233;28;20024;-78
2021/01/17 02:51:39;;;;;;;69.73;32.90;;;;;;;0.84;96.85;101545.47;5075181;28;20024;-79
2021/01/17 02:54:17;;;;;;;68.28;32.47;;;;;;;0.78;96.77;101544.16;5074253;28;20273;-78
2021/01/17 02:56:50;;;;;;;63.87;32.03;;;;;;;0.82;96.48;101538.53;5073388;28;20031;-77
2021/01/17 02:59:17;;;;;;;71.00;34.77;;;;;;;0.90;96.42;101542.50;5075897;28;20461;-78
2021/01/17 03:01:47;;;;;;;63.50;31.43;;;;;;;0.91;96.53;101536.69;5072228;28;20506;-78
2021/01/17 03:04:26;;;;;;;68.00;33.07;;;;;;;0.92;96.42;101541.84;5073927;28;20032;-78
2021/01/17 03:06:52;;;;;;;69.33;32.97;;;;;;;0.94;96.82;101535.25;5075234;28;20025;-78
2021/01/17 03:09:18;;;;;;;75.67;33.43;;;;;;;0.89;96.69;101536.56;5075280;28;20494;-78
2021/01/17 03:11:43;;;;;;;65.05;31.40;;;;;;;0.88;96.54;101549.09;5073383;28;20036;-78
2021/01/17 03:14:10;;;;;;;64.10;31.30;;;;;;;0.87;96.60;101537.22;5075303;28;20025;-78
2021/01/17 03:16:35;;;;;;;64.53;31.03;;;;;;;0.86;96.69;101541.41;5073124;28;20093;-77
2021/01/17 03:19:01;;;;;;;72.15;31.75;;;;;;;0.84;96.76;101545.47;5074904;28;20021;-79
2021/01/17 03:21:26;;;;;;;66.40;29.07;;;;;;;0.85;96.82;101548.88;5072969;28;20031;-79
2021/01/17 03:23:51;;;;;;;60.13;30.02;;;;;;;0.87;96.77;101547.34;5072259;28;20361;-79
2021/01/17 03:26:17;;;;;;;63.03;29.80;;;;;;;0.87;96.98;101538.13;5072667;28;20039;-79
2021/01/17 03:28:42;;;;;;;63.17;31.45;;;;;;;0.87;96.85;101543.16;5072468;28;20016;-79
2021/01/17 03:31:08;;;;;;;75.65;32.83;;;;;;;0.91;97.13;101545.16;5073774;28;20486;-79
2021/01/17 03:33:33;;;;;;;64.30;30.50;;;;;;;0.99;97.30;101542.31;5075010;28;20070;-78
2021/01/17 03:35:58;;;;;;;63.17;30.17;;;;;;;1.06;97.12;101550.47;5073560;28;20119;-79
2021/01/17 03:38:24;;;;;;;65.40;32.23;;;;;;;1.00;97.11;101544.97;5076412;28;20576;-79
2021/01/17 03:40:49;;;;;;;71.33;31.27;;;;;;;1.03;97.46;101549.38;5076185;28;20025;-79
2021/01/17 03:43:14;;;;;;;66.70;30.37;;;;;;;0.98;97.22;101551.56;5076978;28;20308;-79
2021/01/17 03:45:39;;;;;;;61.90;30.17;;;;;;;0.98;97.32;101550.69;5077731;28;20047;-79
2021/01/17 03:48:05;;;;;;;67.73;28.17;;;;;;;0.97;97.16;101554.84;5077536;28;20286;-80
2021/01/17 03:50:30;;;;;;;62.17;28.40;;;;;;;0.97;97.30;101557.38;5071943;28;20028;-80
2021/01/17 03:52:56;;;;;;;58.30;27.53;;;;;;;1.11;97.26;101553.31;5075776;28;20024;-79
2021/01/17 03:55:21;;;;;;;71.57;29.40;;;;;;;1.15;97.47;101546.06;5077315;28;20028;-78
2021/01/17 03:57:46;;;;;;;66.63;27.27;;;;;;;1.19;97.70;101555.63;5074040;28;20839;-79
2021/01/17 04:00:12;;;;;;;63.33;26.50;;;;;;;1.30;97.71;101555.53;5078481;28;20024;-80
2021/01/17 04:02:37;;;;;;;68.82;25.52;;;;;;;1.40;97.67;101552.91;5076279;28;20308;-80
2021/01/17 04:05:03;;;;;;;65.43;23.65;;;;;;;1.68;97.60;101554.09;5077145;28;20475;-80
2021/01/17 04:07:28;;;;;;;64.57;23.98;;;;;;;1.96;97.40;101556.91;5076632;28;20509;-79
2021/01/17 04:09:53;;;;;;;46.58;20.42;;;;;;;2.10;97.77;101560.38;5077556;28;20027;-78
2021/01/17 04:12:19;;;;;;;56.28;17.85;;;;;;;2.17;97.65;101554.94;5076951;28;20074;-79
2021/01/17 04:14:44;;;;;;;56.95;17.83;;;;;;;2.25;97.66;101556.34;5079850;28;20016;-79
2021/01/17 04:17:09;;;;;;;45.97;16.30;;;;;;;2.29;97.72;101555.81;5078966;28;20024;-79
2021/01/17 04:19:35;;;;;;;53.67;16.33;;;;;;;2.41;97.81;101553.22;5078582;28;20270;-79
2021/01/17 04:22:00;;;;;;;48.65;14.02;;;;;;;2.44;97.95;101551.75;5077917;28;20067;-79
2021/01/17 04:24:25;;;;;;;44.30;13.45;;;;;;;2.54;97.70;101553.25;5078631;28;20264;-79
2021/01/17 04:26:56;;;;;;;50.57;14.80;;;;;;;2.63;97.85;101550.47;5076743;28;20048;-79
2021/01/17 04:29:22;;;;;;;59.53;12.20;;;;;;;2.82;97.75;101548.34;5076911;28;20087;-80
2021/01/17 04:31:47;;;;;;;44.10;11.53;;;;;;;2.82;97.89;101550.88;5076355;28;20129;-79
2021/01/17 04:34:12;;;;;;;51.65;11.55;;;;;;;2.98;97.39;101551.13;5075179;28;20023;-80
2021/01/17 04:36:38;;;;;;;47.63;8.23;;;;;;;3.24;97.38;101545.16;5077386;28;20446;-77
2021/01/17 04:39:05;;;;;;;38.05;7.22;;;;;;;3.40;97.13;101545.38;5075055;28;20016;-79
2021/01/17 04:41:33;;;;;;;38.07;6.83;;;;;;;3.45;97.18;101548.22;5074219;28;20020;-78
2021/01/17 04:44:00;;;;;;;42.33;8.17;;;;;;;3.40;96.87;101549.59;5077263;28;20111;-78
2021/01/17 04:46:27;;;;;;;39.80;6.47;;;;;;;3.48;96.70;101550.06;5075742;28;20039;-78
2021/01/17 04:48:58;;;;;;;33.97;6.90;;;;;;;3.59;96.74;101551.63;5075805;28;20359;-78
2021/01/17 04:51:25;;;;;;;38.33;6.53;;;;;;;3.58;96.23;101552.41;5076047;28;20055;-78
2021/01/17 04:53:51;;;;;;;39.10;6.80;;;;;;;3.65;96.09;101554.56;5075701;28;20032;-78
2021/01/17 04:56:29;;;;;;;35.25;5.70;;;;;;;3.60;95.61;101553.41;5076493;28;20107;-78
2021/01/17 04:59:07;;;;;;;50.67;5.80;;;;;;;3.68;95.51;101553.09;5074322;28;20021;-78
2021/01/17 05:01:49;;;;;;;30.90;4.53;;;;;;;3.66;95.51;101556.31;5075935;28;20027;-78
2021/01/17 05:04:41;;;;;;;40.10;5.97;;;;;;;3.73;95.52;101558.44;5074481;28;20541;-77
2021/01/17 05:07:15;;;;;;;41.33;5.47;;;;;;;3.80;95.13;101568.19;5074081;28;20028;-77
2021/01/17 05:09:55;;;;;;;43.87;4.93;;;;;;;3.76;95.22;101568.81;5073793;28;20051;-78
2021/01/17 05:12:28;;;;;;;41.97;5.73;;;;;;;3.81;95.05;101569.09;5075336;28;20026;-78
2021/01/17 05:14:55;;;;;;;30.10;5.50;;;;;;;3.83;95.07;101565.84;5073839;28;20443;-78
2021/01/17 05:17:21;;;;;;;42.63;4.60;;;;;;;3.78;95.19;101568.91;5074095;28;20485;-78
2021/01/17 05:19:47;;;;;;;;;;;;;;;3.83;95.30;101567.50;5074182;28;20036;-79
2021/01/17 05:22:14;;;;;;;49.57;5.93;;;;;;;3.82;95.23;101560.66;5074175;28;19912;-79
2021/01/17 05:24:42;;;;;;;36.27;6.13;;;;;;;3.82;95.18;101568.28;5074015;28;20039;-79
2021/01/17 05:27:08;;;;;;;30.13;4.73;;;;;;;3.77;95.06;101560.38;5071597;28;20510;-79
2021/01/17 05:29:33;;;;;;;38.97;4.57;;;;;;;3.65;94.86;101567.25;5073445;28;20031;-79
2021/01/17 05:32:00;;;;;;;31.97;4.87;;;;;;;3.72;95.16;101570.28;5073188;28;20282;-78
2021/01/17 05:34:27;;;;;;;38.90;4.60;;;;;;;3.77;95.31;101577.31;5071661;28;20104;-78
2021/01/17 05:37:03;;;;;;;36.87;4.83;;;;;;;3.74;95.33;101568.69;5072764;28;20520;-78
2021/01/17 05:39:29;;;;;;;27.13;4.25;;;;;;;3.76;95.24;101566.25;5071148;28;20408;-78
2021/01/17 05:42:05;;;;;;;34.97;4.32;;;;;;;3.77;94.91;101572.22;5074567;28;20039;-79
2021/01/17 05:44:30;;;;;;;30.20;4.40;;;;;;;3.81;94.90;101577.59;5081471;22;20088;-78
2021/01/17 05:47:05;;;;;;;37.95;5.90;;;;;;;3.79;94.78;101578.28;5042724;28;20487;-78
2021/01/17 05:49:31;;;;;;;33.87;4.40;;;;;;;3.75;95.11;101583.16;5037301;28;20188;-77
2021/01/17 05:52:14;;;;;;;33.58;4.75;;;;;;;3.73;94.84;101589.81;5042003;28;20041;-78
2021/01/17 05:54:41;;;;;;;36.53;4.17;;;;;;;3.79;95.04;101580.81;5042404;28;20045;-78
2021/01/17 05:57:13;;;;;;;26.97;4.17;;;;;;;3.84;95.06;101576.88;5040292;28;20025;-78
2021/01/17 05:59:38;;;;;;;36.03;4.60;;;;;;;3.93;94.75;101588.53;5046683;28;20475;-78
2021/01/17 06:02:12;;;;;;;30.27;4.47;;;;;;;3.96;94.52;101590.38;5044642;28;20048;-78
2021/01/17 06:04:40;;;;;;;36.10;4.70;;;;;;;4.03;94.36;101595.06;5038372;28;20075;-78
2021/01/17 06:07:07;;;;;;;39.27;5.17;;;;;;;4.03;93.97;101601.03;5041481;28;20033;-78
2021/01/17 06:09:33;;;;;;;35.63;4.60;;;;;;;3.98;94.27;101601.53;5039413;28;20104;-79
2021/01/17 06:11:59;;;;;;;29.57;4.93;;;;;;;4.14;94.01;101601.66;5042942;28;20024;-77
2021/01/17 06:14:27;;;;;;;31.63;3.93;;;;;;;4.19;93.53;101607.03;5035420;28;20044;-77
2021/01/17 06:17:01;;;;;;;47.47;5.53;;;;;;;4.13;93.37;101612.63;5042078;28;20268;-78
2021/01/17 06:19:35;;;;;;;29.83;4.10;;;;;;;4.16;93.24;101607.72;5036225;28;20029;-78
2021/01/17 06:22:03;;;;;;;29.87;3.63;;;;;;;4.19;93.52;101607.91;5042624;28;20647;-77
2021/01/17 06:24:36;;;;;;;28.53;4.00;;;;;;;4.15;93.48;101613.59;5039611;28;20018;-78
2021/01/17 06:27:04;;;;;;;27.13;4.53;;;;;;;4.24;93.46;101624.34;5033996;28;20036;-77
2021/01/17 06:29:42;;;;;;;30.43;3.50;;;;;;;4.24;93.66;101623.47;5039817;28;20037;-78
2021/01/17 06:32:15;;;;;;;32.80;5.77;;;;;;;4.30;93.33;101624.72;5041273;28;20100;-77
2021/01/17 06:34:46;;;;;;;30.83;4.27;;;;;;;4.31;93.38;101636.66;5037430;28;20021;-77
2021/01/17 06:37:13;;;;;;;38.57;5.47;;;;;;;4.41;93.32;101633.00;5037013;28;20037;-77
2021/01/17 06:39:44;;;;;;;39.13;6.37;;;;;;;4.41;93.52;101635.53;5037850;28;20418;-76
2021/01/17 06:42:12;;;;;;;35.17;4.30;;;;;;;4.38;93.16;101633.69;5045158;28;20072;-79
2021/01/17 06:44:38;;;;;;;31.50;4.17;;;;;;;4.38;93.16;101638.78;5035148;28;20022;-77
2021/01/17 06:47:04;;;;;;;39.45;5.03;;;;;;;4.34;93.24;101636.84;5043789;28;20062;-77
2021/01/17 06:49:36;;;;;;;20.98;4.05;;;;;;;4.28;93.03;101636.47;5040549;28;20091;-77
2021/01/17 06:52:05;;;;;;;32.03;4.60;;;;;;;4.28;93.08;101643.22;5036952;28;20479;-78
2021/01/17 06:54:32;;;;;;;35.33;4.23;;;;;;;4.25;93.07;101645.56;5039010;28;20049;-79
2021/01/17 06:56:59;;;;;;;22.30;5.27;;;;;;;4.23;93.23;101647.16;5039934;28;20375;-78
2021/01/17 06:59:28;;;;;;;32.70;4.43;;;;;;;4.18;93.10;101653.59;5039861;28;20032;-77
2021/01/17 07:02:05;;;;;;;36.60;4.83;;;;;;;4.23;93.05;101650.56;5034073;28;20025;-77
2021/01/17 07:04:44;;;;;;;31.40;5.73;;;;;;;4.17;93.19;101651.84;5036547;28;20021;-77
2021/01/17 07:07:22;;;;;;;39.87;6.80;;;;;;;4.13;93.24;101663.47;5042455;28;20383;-77
2021/01/17 07:09:50;;;;;;;44.30;5.07;;;;;;;4.15;93.56;101664.44;5035765;28;20029;-78
2021/01/17 07:12:34;;;;;;;34.93;3.87;;;;;;;4.22;93.33;101669.13;5040689;28;20032;-75
2021/01/17 07:15:08;;;;;;;33.03;4.60;;;;;;;4.24;92.76;101674.34;5036171;28;20026;-75
2021/01/17 07:17:36;;;;;;;30.10;5.13;;;;;;;4.21;93.00;101677.53;5040666;28;20036;-76
2021/01/17 07:20:07;;;;;;;29.70;6.10;;;;;;;4.24;93.18;101680.31;5040852;28;20390;-76
2021/01/17 07:22:32;;;;;;;30.17;4.10;;;;;;;4.11;93.18;101677.75;5040768;28;20116;-76
2021/01/17 07:25:04;;;;;;;35.08;5.22;;;;;;;4.11;93.28;101682.84;5040702;28;20501;-76
2021/01/17 07:28:04;;;;;;;24.97;4.67;;;;;;;4.14;93.29;101688.13;5042445;28;20044;-78
2021/01/17 07:30:40;;;;;;;26.67;4.37;;;;;;;4.18;92.73;101694.28;5039792;28;20127;-77
2021/01/17 07:33:07;;;;;;;27.47;4.30;;;;;;;4.11;92.94;101698.09;5042535;28;20111;-76
2021/01/17 07:35:43;;;;;;;44.80;4.60;;;;;;;4.07;93.23;101706.31;5046795;28;20560;-76
2021/01/17 07:38:20;;;;;;;22.47;4.20;;;;;;;4.18;93.43;101700.25;5042121;28;20051;-77
2021/01/17 07:40:52;;;;;;;28.57;5.07;;;;;;;4.15;93.16;101700.06;5047331;28;20454;-77
2021/01/17 07:43:22;;;;;;;36.50;5.40;;;;;;;4.17;93.09;101705.22;5040385;28;20129;-76
2021/01/17 07:45:50;;;;;;;26.67;4.90;;;;;;;4.12;92.93;101707.50;5038619;28;20037;-76
2021/01/17 07:48:17;;;;;;;37.23;4.73;;;;;;;4.00;93.29;101719.44;5038206;28;20056;-76
2021/01/17 07:50:45;;;;;;;31.30;5.90;;;;;;;3.88;93.43;101714.41;5041305;28;20029;-76
2021/01/17 07:53:42;;;;;;;32.73;4.37;;;;;;;3.83;93.45;101725.97;5040768;28;20021;-75
2021/01/17 07:56:07;;;;;;;26.90;3.55;;;;;;;3.79;93.25;101734.16;5040657;28;20040;-76
2021/01/17 07:58:37;;;;;;;26.23;4.33;;;;;;;3.64;93.50;101735.72;5041147;28;20045;-77
2021/01/17 08:01:03;;;;;;;32.50;4.87;;;;;;;3.58;94.14;101738.75;5050700;28;20020;-78
2021/01/17 08:03:28;;;;;;;35.20;4.63;;;;;;;3.70;94.62;101744.63;5037513;28;20044;-78
2021/01/17 08:05:57;;;;;;;29.48;5.25;;;;;;;3.73;94.48;101749.03;5046570;28;20055;-77
2021/01/17 08:08:35;;;;;;;32.40;4.50;;;;;;;3.78;94.21;101762.91;5044673;28;20036;-77
2021/01/17 08:11:03;;;;;;;33.47;5.87;;;;;;;3.68;93.77;101758.88;5042599;28;20029;-78
2021/01/17 08:13:33;;;;;;;27.47;5.17;;;;;;;3.78;93.80;101757.81;5044422;28;20044;-78
2021/01/17 08:16:09;;;;;;;30.07;5.50;;;;;;;3.84;94.03;101759.88;5044176;28;20552;-78
2021/01/17 08:18:35;;;;;;;29.23;6.05;;;;;;;3.94;93.95;101759.72;5043727;28;20422;-76
2021/01/17 08:21:20;;;;;;;44.20;5.73;;;;;;;4.18;93.35;101775.66;5043833;28;20022;-75
2021/01/17 08:24:13;;;;;;;34.33;5.67;;;;;;;4.25;93.15;101772.75;5042691;28;20052;-78
2021/01/17 08:26:56;;;;;;;33.70;5.27;;;;;;;4.35;92.54;101775.94;5038292;28;20025;-77
2021/01/17 08:29:21;;;;;;;33.90;6.50;;;;;;;4.38;92.56;101781.22;5039696;28;20132;-78
2021/01/17 08:31:47;;;;;;;28.10;4.63;;;;;;;4.42;92.31;101783.97;5047138;28;20118;-77
2021/01/17 08:34:14;;;;;;;36.70;4.82;;;;;;;4.49;92.45;101788.66;5041754;28;20321;-76
2021/01/17 08:36:40;;;;;;;26.27;4.83;;;;;;;4.54;92.41;101782.19;5044761;28;20032;-77
2021/01/17 08:39:05;;;;;;;;;;;;;;;4.58;92.40;101791.78;5042211;28;20024;-77
2021/01/17 08:41:31;;;;;;;30.50;4.43;;;;;;;4.74;92.00;101802.13;5041164;28;20298;-78
2021/01/17 08:43:57;;;;;;;23.33;4.32;;;;;;;4.80;91.41;101804.19;5042999;28;20021;-77
2021/01/17 08:46:33;;;;;;;32.03;4.38;;;;;;;4.83;91.50;101797.59;5040675;28;20033;-77
2021/01/17 08:48:58;;;;;;;21.42;4.82;;;;;;;4.87;91.44;101802.09;5040778;28;20029;-78
2021/01/17 08:51:24;;;;;;;34.30;5.05;;;;;;;4.96;91.06;101804.34;5044581;28;20497;-77
2021/01/17 08:53:50;;;;;;;28.17;4.28;;;;;;;5.07;90.67;101803.34;5041869;28;20020;-77
2021/01/17 08:56:18;;;;;;;29.23;4.60;;;;;;;5.19;90.26;101813.38;5037326;28;20025;-75
2021/01/17 08:58:45;;;;;;;26.13;4.90;;;;;;;5.31;90.29;101820.13;5044505;28;20035;-79
2021/01/17 09:01:13;;;;;;;29.47;4.67;;;;;;;5.46;89.24;101816.72;5034787;28;20065;-77
2021/01/17 09:03:41;;;;;;;35.70;6.93;;;;;;;5.57;89.05;101823.34;5043814;28;20030;-77
2021/01/17 09:06:12;;;;;;;35.03;4.93;;;;;;;5.68;88.97;101829.06;5040781;28;20040;-77
2021/01/17 09:08:47;;;;;;;31.30;4.43;;;;;;;5.77;88.72;101827.06;5040978;28;20041;-77
2021/01/17 09:11:28;;;;;;;28.30;4.43;;;;;;;5.82;88.08;101825.66;5040126;28;20037;-76
2021/01/17 09:14:15;;;;;;;27.70;4.50;;;;;;;5.87;88.25;101834.47;5040289;28;20035;-77
2021/01/17 09:16:52;;;;;;;24.65;4.22;;;;;;;5.87;88.29;101839.56;5043111;28;20028;-78
2021/01/17 09:19:19;;;;;;;32.17;4.07;;;;;;;5.89;88.04;101838.91;5039630;28;20057;-77
2021/01/17 09:21:46;;;;;;;31.40;4.73;;;;;;;5.92;87.92;101844.19;5042173;28;20024;-78
2021/01/17 09:24:18;;;;;;;40.17;4.63;;;;;;;5.99;87.89;101849.63;5039204;28;20027;-78
2021/01/17 09:26:52;;;;;;;35.00;5.10;;;;;;;6.09;87.58;101857.88;5043072;28;20045;-78
2021/01/17 09:29:19;;;;;;;40.13;4.77;;;;;;;6.06;87.49;101867.91;5043936;28;20028;-79
2021/01/17 09:31:50;;;;;;;33.07;4.70;;;;;;;5.97;87.51;101862.28;5041855;28;20087;-77
2021/01/17 09:34:23;;;;;;;30.57;5.20;;;;;;;5.85;87.38;101877.72;5044433;28;20025;-77
2021/01/17 09:36:49;;;;;;;21.00;3.67;;;;;;;5.76;87.16;101878.84;5039531;28;20415;-78
2021/01/17 09:39:44;;;;;;;21.65;3.40;;;;;;;5.66;87.25;101877.41;5040614;28;20063;-76
2021/01/17 09:42:12;;;;;;;21.53;3.83;;;;;;;5.69;86.88;101880.13;5027887;28;20037;-76
2021/01/17 09:44:38;;;;;;;21.77;3.87;;;;;;;5.77;86.89;101890.78;5040082;28;20104;-77
2021/01/17 09:47:13;;;;;;;21.93;3.03;;;;;;;5.84;85.71;101887.81;5040277;28;20029;-77
2021/01/17 09:49:38;;;;;;;21.17;3.00;;;;;;;5.82;85.86;101897.03;5042624;28;20052;-76
2021/01/17 09:52:04;;;;;;;13.52;2.70;;;;;;;5.79;86.06;101896.84;5042433;28;20024;-77
2021/01/17 09:54:29;;;;;;;23.88;3.05;;;;;;;5.69;86.50;101905.63;5042304;28;20037;-77
2021/01/17 09:56:54;;;;;;;20.00;3.03;;;;;;;5.70;86.95;101903.97;5043297;28;20021;-76
2021/01/17 09:59:22;;;;;;;13.93;2.72;;;;;;;5.66;86.24;101914.78;5044635;28;20166;-78
2021/01/17 10:01:48;;;;;;;22.30;3.27;;;;;;;5.66;86.69;101914.78;5043865;28;20047;-77
2021/01/17 10:04:22;;;;;;;32.73;3.33;;;;;;;5.65;86.83;101920.66;5039226;28;20017;-77
2021/01/17 10:06:50;;;;;;;29.47;4.33;;;;;;;5.64;87.14;101922.31;5040894;28;20033;-77
2021/01/17 10:09:20;;;;;;;22.00;3.70;;;;;;;5.72;87.61;101925.31;5038366;28;20021;-77
2021/01/17 10:11:51;;;;;;;22.97;3.93;;;;;;;5.86;87.11;101932.16;5038507;28;20025;-78
2021/01/17 10:14:21;;;;;;;26.13;4.00;;;;;;;5.85;87.00;101925.25;5039888;28;20416;-78
2021/01/17 10:16:51;;;;;;;23.77;3.03;;;;;;;5.84;87.38;101931.16;5037195;28;20365;-77
2021/01/17 10:19:22;;;;;;;29.97;3.77;;;;;;;5.86;87.66;101929.59;5045614;28;20024;-78
2021/01/17 10:21:47;;;;;;;26.20;5.00;;;;;;;5.93;87.31;101929.22;5042689;28;20017;-78
2021/01/17 10:24:19;;;;;;;25.27;3.83;;;;;;;5.88;87.77;101926.34;5039948;28;20541;-78
2021/01/17 10:26:50;;;;;;;26.67;3.53;;;;;;;5.86;88.26;101929.59;5041433;28;20362;-79
2021/01/17 10:29:19;;;;;;;29.80;3.60;;;;;;;5.88;88.43;101938.22;5043136;28;20117;-79
2021/01/17 10:31:49;;;;;;;28.37;4.10;;;;;;;5.95;88.70;101945.47;5042470;28;20025;-79
2021/01/17 10:34:26;;;;;;;29.00;4.27;;;;;;;6.03;88.37;101949.38;5043629;28;20491;-80
2021/01/17 10:37:01;;;;;;;27.20;4.13;;;;;;;6.13;88.35;101953.34;5043426;28;20475;-77
2021/01/17 10:39:28;;;;;;;17.13;4.23;;;;;;;6.18;88.16;101957.94;5040789;28;20081;-81
2021/01/17 10:42:05;;;;;;;25.33;3.60;;;;;;;6.24;88.29;101960.84;5041208;28;20033;-78
2021/01/17 10:44:34;;;;;;;21.97;3.13;;;;;;;6.26;87.51;101967.72;5045248;28;20029;-77
2021/01/17 10:47:13;;;;;;;29.93;4.20;;;;;;;6.22;87.74;101964.09;5034703;28;20026;-79
2021/01/17 10:49:42;;;;;;;26.30;3.40;;;;;;;6.20;87.57;101964.00;5042629;28;20025;-78
2021/01/17 10:52:18;;;;;;;25.60;3.47;;;;;;;6.16;87.42;101972.25;5039205;28;20462;-77
2021/01/17 10:54:45;;;;;;;23.83;4.80;;;;;;;6.15;87.94;101967.94;5040960;28;20679;-77
2021/01/17 10:57:11;;;;;;;25.13;3.57;;;;;;;6.16;88.15;101971.38;5040548;28;20021;-76
2021/01/17 10:59:37;;;;;;;20.60;2.90;;;;;;;6.09;88.19;101980.34;5036780;28;20028;-78
2021/01/17 11:02:03;;;;;;;32.17;4.07;;;;;;;6.18;87.82;101983.47;5043191;28;20108;-77
2021/01/17 11:04:38;;;;;;;22.90;4.47;;;;;;;6.19;87.08;101984.34;5045353;28;20022;-79
2021/01/17 11:07:03;;;;;;;23.70;2.87;;;;;;;6.18;87.40;101986.00;5039476;28;20289;-76
2021/01/17 11:09:29;;;;;;;15.60;3.10;;;;;;;6.20;87.12;101989.53;5046116;28;20026;-78
2021/01/17 11:11:55;;;;;;;;;;;;;;;6.22;86.29;101985.41;5046677;28;20544;-78
2021/01/17 11:14:30;;;;;;;20.40;2.73;;;;;;;6.29;86.85;101995.97;5044106;28;19917;-77
2021/01/17 11:16:56;;;;;;;20.10;2.77;;;;;;;6.38;85.63;101993.94;5044059;28;20163;-77
2021/01/17 11:19:36;;;;;;;16.83;3.97;;;;;;;6.39;85.54;101996.59;5046389;28;20040;-77
2021/01/17 11:22:03;;;;;;;12.87;2.20;;;;;;;6.42;85.23;101993.31;5039906;28;20374;-77
2021/01/17 11:24:36;;;;;;;23.63;3.70;;;;;;;6.32;84.99;102004.66;5036282;28;20390;-76
2021/01/17 11:27:12;;;;;;;13.07;2.27;;;;;;;6.27;85.00;101995.00;5041532;28;20029;-78
2021/01/17 11:29:39;;;;;;;16.67;1.60;;;;;;;6.25;85.08;101992.34;5045196;28;20021;-77
2021/01/17 11:32:05;;;;;;;13.33;1.77;;;;;;;6.27;84.08;101980.56;5043551;28;20568;-77
2021/01/17 11:34:35;;;;;;;10.55;1.40;;;;;;;6.28;84.42;101982.31;5040807;28;20017;-78